createdAt,value
2023-04-21T00:00:19.451Z,13.57
2023-04-21T00:02:46.813Z,13.03
2023-04-21T00:05:14.188Z,12.87
2023-04-21T00:07:41.735Z,12.93
2023-04-21T00:10:08.906Z,13.20
2023-04-21T00:12:35.484Z,12.40
2023-04-21T00:15:02.130Z,12.55
2023-04-21T00:17:28.794Z,13.20
2023-04-21T00:19:55.296Z,12.07
2023-04-21T00:22:22.372Z,12.40
2023-04-21T00:24:48.993Z,12.05
2023-04-21T00:27:15.790Z,12.20
2023-04-21T00:29:42.362Z,13.30
2023-04-21T00:32:10.237Z,13.03
2023-04-21T00:34:36.839Z,13.82
2023-04-21T00:37:03.400Z,13.70
2023-04-21T00:39:29.972Z,14.17
2023-04-21T00:41:57.467Z,13.00
2023-04-21T00:44:23.975Z,13.43
2023-04-21T00:46:50.632Z,13.35
2023-04-21T00:49:17.399Z,14.37
2023-04-21T00:51:44.053Z,13.97
2023-04-21T00:54:10.694Z,13.10
2023-04-21T00:56:37.341Z,13.43
2023-04-21T00:59:03.982Z,13.93
2023-04-21T01:01:36.686Z,13.07
2023-04-21T01:04:04.124Z,13.13
2023-04-21T01:06:36.937Z,13.35
2023-04-21T01:09:04.876Z,13.53
2023-04-21T01:11:32.281Z,11.97
2023-04-21T01:13:58.776Z,12.67
2023-04-21T01:16:25.317Z,12.20
2023-04-21T01:18:54.838Z,13.83
2023-04-21T01:21:22.007Z,12.40
2023-04-21T01:23:48.675Z,12.80
2023-04-21T01:26:17.575Z,13.20
2023-04-21T01:28:44.111Z,13.57
2023-04-21T01:31:10.590Z,14.13
2023-04-21T01:33:37.103Z,13.70
2023-04-21T01:36:03.653Z,12.67
2023-04-21T01:38:30.157Z,13.37
2023-04-21T01:40:56.931Z,13.43
2023-04-21T01:43:24.377Z,12.90
2023-04-21T01:45:50.894Z,12.43
2023-04-21T01:48:17.475Z,13.70
2023-04-21T01:50:43.951Z,12.00
2023-04-21T01:53:10.434Z,12.17
2023-04-21T01:55:36.916Z,12.03
2023-04-21T01:58:03.409Z,12.40
2023-04-21T02:00:29.986Z,13.53
2023-04-21T02:02:56.737Z,12.73
2023-04-21T02:05:23.340Z,12.53
2023-04-21T02:07:49.805Z,12.27
2023-04-21T02:10:16.357Z,12.30
2023-04-21T02:12:42.845Z,11.90
2023-04-21T02:15:09.726Z,12.33
2023-04-21T02:17:36.663Z,13.50
2023-04-21T02:20:04.427Z,13.17
2023-04-21T02:22:30.965Z,12.80
2023-04-21T02:24:57.755Z,13.03
2023-04-21T02:27:24.216Z,12.60
2023-04-21T02:29:50.837Z,11.70
2023-04-21T02:32:25.631Z,11.90
2023-04-21T02:34:52.586Z,12.40
2023-04-21T02:37:19.792Z,12.47
2023-04-21T02:39:46.285Z,12.83
2023-04-21T02:42:12.780Z,13.00
2023-04-21T02:44:39.356Z,13.20
2023-04-21T02:47:05.892Z,13.57
2023-04-21T02:49:32.464Z,13.57
2023-04-21T02:51:58.945Z,14.07
2023-04-21T02:54:25.438Z,13.77
2023-04-21T02:56:51.935Z,12.93
2023-04-21T02:59:18.783Z,13.17
2023-04-21T03:01:46.432Z,14.53
2023-04-21T03:04:13.129Z,13.27
2023-04-21T03:06:39.933Z,13.73
2023-04-21T03:09:06.486Z,13.60
2023-04-21T03:11:32.996Z,13.60
2023-04-21T03:13:59.486Z,13.37
2023-04-21T03:16:26.114Z,13.40
2023-04-21T03:18:52.637Z,11.70
2023-04-21T03:21:19.222Z,13.13
2023-04-21T03:23:45.737Z,13.67
2023-04-21T03:26:12.232Z,13.80
2023-04-21T03:28:38.692Z,13.40
2023-04-21T03:31:05.252Z,12.67
2023-04-21T03:33:31.776Z,13.33
2023-04-21T03:35:58.365Z,13.80
2023-04-21T03:38:24.858Z,14.37
2023-04-21T03:40:51.333Z,14.50
2023-04-21T03:43:19.334Z,14.37
2023-04-21T03:45:45.884Z,16.97
2023-04-21T03:48:12.473Z,18.63
2023-04-21T03:50:39.004Z,19.27
2023-04-21T03:53:05.619Z,16.90
2023-04-21T03:55:32.200Z,15.10
2023-04-21T03:57:58.839Z,15.97
2023-04-21T04:00:25.679Z,15.13
2023-04-21T04:02:52.241Z,15.17
2023-04-21T04:05:18.916Z,15.13
2023-04-21T04:07:45.534Z,15.07
2023-04-21T04:10:12.245Z,15.00
2023-04-21T04:12:38.770Z,15.20
2023-04-21T04:15:05.508Z,13.97
2023-04-21T04:17:32.019Z,14.23
2023-04-21T04:19:58.529Z,13.97
2023-04-21T04:22:25.069Z,14.83
2023-04-21T04:24:51.602Z,13.93
2023-04-21T04:27:18.133Z,13.83
2023-04-21T04:29:46.629Z,13.77
2023-04-21T04:32:13.662Z,13.30
2023-04-21T04:34:40.149Z,13.57
2023-04-21T04:37:06.884Z,13.67
2023-04-21T04:39:33.496Z,14.57
2023-04-21T04:42:00.003Z,14.60
2023-04-21T04:44:26.509Z,13.63
2023-04-21T04:46:54.332Z,13.40
2023-04-21T04:49:22.223Z,13.80
2023-04-21T04:51:50.273Z,14.10
2023-04-21T04:54:17.018Z,13.53
2023-04-21T04:56:43.837Z,13.97
2023-04-21T04:59:10.922Z,13.50
2023-04-21T05:01:38.394Z,13.53
2023-04-21T05:04:05.358Z,13.40
2023-04-21T05:06:32.674Z,13.97
2023-04-21T05:08:59.195Z,13.33
2023-04-21T05:11:25.820Z,12.90
2023-04-21T05:13:52.332Z,13.83
2023-04-21T05:16:19.279Z,14.13
2023-04-21T05:18:46.161Z,13.60
2023-04-21T05:21:13.010Z,13.53
2023-04-21T05:23:39.799Z,15.33
2023-04-21T05:26:06.339Z,12.90
2023-04-21T05:28:33.438Z,12.70
2023-04-21T05:31:00.148Z,12.30
2023-04-21T05:33:27.029Z,11.33
2023-04-21T05:35:53.761Z,12.00
2023-04-21T05:38:20.294Z,13.00
2023-04-21T05:40:52.524Z,12.40
2023-04-21T05:43:19.147Z,11.50
2023-04-21T05:45:45.717Z,12.98
2023-04-21T05:48:13.608Z,12.27
2023-04-21T05:50:40.456Z,12.47
2023-04-21T05:53:06.987Z,11.63
2023-04-21T05:55:36.775Z,11.87
2023-04-21T05:58:04.265Z,12.17
2023-04-21T06:00:31.045Z,12.38
2023-04-21T06:02:57.778Z,12.18
2023-04-21T06:05:24.572Z,12.73
2023-04-21T06:07:51.274Z,11.82
2023-04-21T06:10:17.898Z,11.85
2023-04-21T06:12:44.401Z,11.23
2023-04-21T06:15:11.020Z,11.43
2023-04-21T06:17:37.534Z,11.48
2023-04-21T06:20:04.359Z,10.02
2023-04-21T06:22:30.937Z,10.65
2023-04-21T06:24:58.792Z,10.60
2023-04-21T06:27:25.788Z,10.60
2023-04-21T06:29:56.447Z,11.35
2023-04-21T06:32:23.109Z,10.55
2023-04-21T06:34:49.822Z,10.70
2023-04-21T06:37:16.665Z,10.82
2023-04-21T06:39:43.236Z,11.77
2023-04-21T06:42:09.743Z,11.23
2023-04-21T06:44:38.097Z,9.63
2023-04-21T06:47:04.716Z,10.15
2023-04-21T06:49:31.381Z,10.60
2023-04-21T06:51:57.881Z,9.80
2023-04-21T06:54:24.443Z,10.73
2023-04-21T06:56:51.537Z,9.52
2023-04-21T06:59:18.193Z,10.13
2023-04-21T07:01:44.958Z,9.93
2023-04-21T07:04:11.513Z,10.68
2023-04-21T07:06:38.032Z,10.52
2023-04-21T07:09:05.859Z,10.55
2023-04-21T07:11:32.371Z,10.82
2023-04-21T07:14:01.325Z,11.38
2023-04-21T07:16:31.044Z,10.57
2023-04-21T07:18:57.682Z,11.00
2023-04-21T07:21:24.313Z,11.02
2023-04-21T07:23:51.195Z,9.73
2023-04-21T07:26:18.369Z,10.65
2023-04-21T07:28:44.836Z,9.15
2023-04-21T07:31:11.419Z,9.48
2023-04-21T07:33:37.919Z,8.57
2023-04-21T07:36:04.589Z,7.95
2023-04-21T07:38:31.182Z,8.82
2023-04-21T07:40:57.662Z,7.72
2023-04-21T07:43:25.381Z,8.55
2023-04-21T07:45:52.742Z,7.70
2023-04-21T07:48:19.369Z,6.70
2023-04-21T07:50:45.852Z,5.55
2023-04-21T07:53:12.438Z,6.13
2023-04-21T07:55:38.973Z,6.82
2023-04-21T07:58:05.510Z,6.30
2023-04-21T08:00:32.023Z,6.55
2023-04-21T08:02:58.610Z,7.28
2023-04-21T08:05:27.950Z,7.70
2023-04-21T08:07:56.821Z,6.80
2023-04-21T08:10:23.385Z,8.30
2023-04-21T08:12:50.703Z,6.50
2023-04-21T08:15:17.248Z,7.57
2023-04-21T08:17:43.875Z,8.18
2023-04-21T08:20:10.901Z,6.85
2023-04-21T08:22:37.686Z,7.60
2023-04-21T08:25:04.632Z,8.07
2023-04-21T08:27:31.208Z,7.70
2023-04-21T08:29:58.038Z,7.90
2023-04-21T08:32:26.550Z,7.05
2023-04-21T08:34:53.578Z,6.93
2023-04-21T08:37:20.615Z,7.82
2023-04-21T08:39:47.425Z,7.18
2023-04-21T08:42:15.054Z,7.10
2023-04-21T08:44:41.836Z,5.60
2023-04-21T08:47:10.024Z,5.47
2023-04-21T08:49:36.696Z,6.45
2023-04-21T08:52:03.277Z,6.00
2023-04-21T08:54:30.193Z,6.38
2023-04-21T08:57:04.567Z,7.43
2023-04-21T08:59:38.583Z,8.00
2023-04-21T09:02:11.778Z,7.18
2023-04-21T09:04:39.088Z,6.55
2023-04-21T09:07:05.839Z,6.28
2023-04-21T09:09:32.451Z,6.07
2023-04-21T09:11:59.458Z,5.10
2023-04-21T09:14:31.465Z,5.22
2023-04-21T09:17:01.863Z,4.63
2023-04-21T09:19:28.976Z,5.05
2023-04-21T09:21:55.504Z,5.22
2023-04-21T09:24:22.041Z,5.47
2023-04-21T09:26:54.626Z,5.95
2023-04-21T09:29:24.894Z,5.43
2023-04-21T09:31:52.065Z,5.25
2023-04-21T09:34:25.010Z,4.63
2023-04-21T09:37:03.514Z,4.18
2023-04-21T09:39:43.119Z,5.20
2023-04-21T09:42:16.123Z,4.55
2023-04-21T09:44:52.455Z,4.45
2023-04-21T09:47:23.028Z,4.07
2023-04-21T09:49:52.690Z,3.72
2023-04-21T09:52:22.274Z,3.75
2023-04-21T09:54:52.595Z,4.80
2023-04-21T09:57:21.431Z,3.88
2023-04-21T09:59:48.016Z,3.67
2023-04-21T10:02:14.682Z,3.58
2023-04-21T10:04:41.721Z,4.22
2023-04-21T10:07:09.620Z,4.32
2023-04-21T10:09:40.812Z,3.92
2023-04-21T10:12:09.561Z,3.80
2023-04-21T10:14:36.472Z,4.65
2023-04-21T10:17:10.208Z,3.83
2023-04-21T10:19:40.133Z,2.53
2023-04-21T10:22:07.725Z,3.70
2023-04-21T10:24:38.295Z,3.72
2023-04-21T10:27:04.929Z,3.78
2023-04-21T10:29:47.967Z,3.45
2023-04-21T10:32:38.665Z,4.07
2023-04-21T10:35:05.451Z,3.63
2023-04-21T10:37:32.045Z,4.07
2023-04-21T10:39:58.657Z,3.70
2023-04-21T10:42:26.045Z,3.70
2023-04-21T10:44:58.864Z,3.53
2023-04-21T10:47:28.923Z,3.28
2023-04-21T10:49:58.921Z,3.90
2023-04-21T10:52:32.608Z,4.38
2023-04-21T10:54:59.116Z,3.40
2023-04-21T10:57:25.715Z,3.63
2023-04-21T10:59:52.342Z,4.57
2023-04-21T11:02:19.198Z,4.90
2023-04-21T11:04:49.186Z,4.30
2023-04-21T11:07:16.964Z,4.30
2023-04-21T11:09:43.778Z,5.45
2023-04-21T11:12:10.935Z,4.22
2023-04-21T11:14:38.157Z,4.25
2023-04-21T11:17:04.974Z,4.40
2023-04-21T11:19:34.655Z,4.60
2023-04-21T11:22:01.333Z,4.03
2023-04-21T11:24:27.987Z,4.85
2023-04-21T11:26:54.521Z,4.10
2023-04-21T11:29:21.055Z,3.63
2023-04-21T11:31:49.122Z,4.80
2023-04-21T11:34:16.398Z,4.00
2023-04-21T11:36:43.469Z,4.38
2023-04-21T11:39:11.199Z,3.50
2023-04-21T11:41:42.003Z,4.18
2023-04-21T11:44:08.938Z,3.38
2023-04-21T11:46:37.401Z,3.97
2023-04-21T11:49:04.938Z,4.80
2023-04-21T11:51:35.220Z,4.18
2023-04-21T11:54:01.845Z,4.50
2023-04-21T11:56:28.406Z,4.00
2023-04-21T11:58:55.719Z,4.60
2023-04-21T12:01:22.406Z,4.43
2023-04-21T12:03:52.795Z,4.05
2023-04-21T12:06:23.316Z,3.33
2023-04-21T12:08:54.601Z,4.25
2023-04-21T12:11:21.180Z,3.33
2023-04-21T12:13:47.673Z,3.55
2023-04-21T12:16:14.436Z,3.70
2023-04-21T12:18:42.501Z,3.30
2023-04-21T12:21:09.251Z,3.50
2023-04-21T12:23:35.863Z,3.65
2023-04-21T12:26:02.642Z,3.33
2023-04-21T12:28:29.634Z,3.35
2023-04-21T12:30:56.411Z,2.92
2023-04-21T12:33:23.009Z,3.33
2023-04-21T12:35:49.688Z,3.40
2023-04-21T12:38:16.512Z,3.47
2023-04-21T12:40:43.167Z,3.25
2023-04-21T12:43:09.734Z,3.15
2023-04-21T12:45:36.430Z,3.15
2023-04-21T12:48:05.022Z,3.60
2023-04-21T12:50:31.671Z,3.40
2023-04-21T12:52:58.896Z,3.50
2023-04-21T12:55:25.474Z,3.65
2023-04-21T12:57:52.977Z,4.03
2023-04-21T13:00:19.524Z,3.70
2023-04-21T13:02:46.825Z,3.90
2023-04-21T13:05:13.526Z,3.55
2023-04-21T13:07:40.076Z,3.22
2023-04-21T13:10:06.955Z,3.55
2023-04-21T13:12:33.626Z,4.15
2023-04-21T13:15:00.113Z,3.28
2023-04-21T13:17:26.710Z,3.90
2023-04-21T13:19:53.244Z,4.10
2023-04-21T13:22:19.773Z,4.05
2023-04-21T13:24:46.289Z,3.70
2023-04-21T13:27:12.875Z,3.13
2023-04-21T13:29:39.837Z,3.45
2023-04-21T13:32:06.648Z,4.25
2023-04-21T13:34:33.689Z,3.47
2023-04-21T13:37:01.009Z,3.20
2023-04-21T13:39:27.646Z,4.30
2023-04-21T13:41:54.416Z,2.53
2023-04-21T13:44:23.973Z,2.88
2023-04-21T13:46:53.002Z,2.97
2023-04-21T13:49:19.840Z,2.75
2023-04-21T13:51:46.319Z,2.63
2023-04-21T13:54:12.822Z,3.03
2023-04-21T13:56:39.460Z,2.90
2023-04-21T13:59:06.636Z,2.75
2023-04-21T14:01:33.169Z,2.50
2023-04-21T14:03:59.919Z,2.97
2023-04-21T14:06:26.628Z,2.97
2023-04-21T14:08:53.356Z,2.45
2023-04-21T14:11:20.052Z,2.33
2023-04-21T14:13:59.899Z,2.80
2023-04-21T14:16:33.555Z,3.13
2023-04-21T14:19:00.204Z,2.75
2023-04-21T14:21:26.780Z,2.58
2023-04-21T14:23:53.476Z,2.50
2023-04-21T14:26:20.501Z,3.25
2023-04-21T14:28:47.000Z,2.58
2023-04-21T14:31:13.585Z,2.40
2023-04-21T14:33:40.162Z,2.40
2023-04-21T14:36:06.948Z,2.10
2023-04-21T14:38:33.807Z,1.90
2023-04-21T14:41:00.301Z,2.15
2023-04-21T14:43:26.954Z,2.33
2023-04-21T14:45:53.499Z,2.13
2023-04-21T14:48:21.002Z,2.13
2023-04-21T14:50:47.691Z,2.08
2023-04-21T14:53:14.239Z,2.38
2023-04-21T14:55:40.909Z,1.90
2023-04-21T14:58:07.583Z,2.03
2023-04-21T15:00:35.029Z,1.98
2023-04-21T15:03:01.658Z,2.00
2023-04-21T15:05:28.671Z,2.05
2023-04-21T15:07:55.488Z,1.80
2023-04-21T15:10:22.123Z,2.10
2023-04-21T15:12:48.626Z,2.28
2023-04-21T15:15:15.191Z,2.42
2023-04-21T15:17:41.715Z,2.47
2023-04-21T15:20:10.229Z,2.30
2023-04-21T15:22:36.753Z,2.25
2023-04-21T15:25:03.411Z,2.20
2023-04-21T15:27:30.326Z,2.03
2023-04-21T15:29:56.873Z,2.45
2023-04-21T15:32:23.406Z,1.90
2023-04-21T15:34:50.050Z,2.28
2023-04-21T15:37:23.541Z,2.08
2023-04-21T15:39:51.814Z,2.00
2023-04-21T15:42:18.315Z,2.75
2023-04-21T15:44:47.096Z,2.13
2023-04-21T15:47:15.174Z,2.28
2023-04-21T15:49:41.665Z,3.72
2023-04-21T15:52:08.244Z,1.95
2023-04-21T15:54:35.261Z,1.75
2023-04-21T15:57:05.684Z,2.50
2023-04-21T15:59:32.274Z,2.50
2023-04-21T16:01:58.943Z,2.55
2023-04-21T16:04:25.839Z,2.15
2023-04-21T16:06:52.863Z,2.30
2023-04-21T16:09:21.262Z,2.25
2023-04-21T16:11:50.204Z,1.75
2023-04-21T16:14:16.933Z,1.92
2023-04-21T16:16:43.922Z,1.75
2023-04-21T16:19:10.600Z,1.63
2023-04-21T16:21:37.612Z,1.73
2023-04-21T16:24:06.879Z,1.85
2023-04-21T16:26:34.989Z,2.10
2023-04-21T16:29:02.019Z,1.67
2023-04-21T16:31:28.893Z,1.73
2023-04-21T16:33:59.890Z,1.85
2023-04-21T16:36:28.667Z,2.05
2023-04-21T16:38:55.683Z,2.08
2023-04-21T16:41:22.581Z,1.65
2023-04-21T16:43:49.262Z,2.30
2023-04-21T16:46:15.811Z,2.05
2023-04-21T16:48:42.466Z,1.40
2023-04-21T16:51:09.037Z,1.85
2023-04-21T16:53:36.821Z,1.77
2023-04-21T16:56:04.909Z,1.95
2023-04-21T16:58:31.610Z,2.00
2023-04-21T17:00:58.295Z,1.70
2023-04-21T17:03:27.755Z,1.70
2023-04-21T17:05:54.619Z,1.77
2023-04-21T17:08:21.165Z,1.73
2023-04-21T17:10:48.040Z,1.50
2023-04-21T17:13:14.591Z,2.10
2023-04-21T17:15:41.464Z,1.85
2023-04-21T17:18:08.605Z,2.25
2023-04-21T17:20:35.238Z,2.15
2023-04-21T17:23:01.756Z,1.70
2023-04-21T17:25:28.547Z,1.88
2023-04-21T17:27:55.151Z,1.75
2023-04-21T17:30:22.883Z,1.38
2023-04-21T17:32:51.657Z,1.90
2023-04-21T17:35:24.318Z,1.70
2023-04-21T17:37:50.948Z,2.13
2023-04-21T17:40:17.604Z,1.88
2023-04-21T17:42:44.090Z,2.10
2023-04-21T17:45:11.104Z,2.40
2023-04-21T17:47:40.707Z,2.03
2023-04-21T17:50:12.743Z,1.90
2023-04-21T17:52:39.985Z,2.08
2023-04-21T17:55:09.337Z,2.30
2023-04-21T17:57:36.365Z,2.35
2023-04-21T18:00:08.375Z,2.08
2023-04-21T18:02:38.180Z,2.67
2023-04-21T18:05:07.501Z,2.50
2023-04-21T18:07:34.187Z,2.42
2023-04-21T18:10:00.812Z,2.47
2023-04-21T18:12:27.960Z,2.00
2023-04-21T18:14:54.687Z,2.28
2023-04-21T18:17:23.436Z,2.80
2023-04-21T18:19:50.249Z,2.83
2023-04-21T18:22:17.079Z,3.35
2023-04-21T18:24:43.814Z,3.10
2023-04-21T18:27:11.390Z,3.08
2023-04-21T18:29:38.146Z,3.83
2023-04-21T18:32:04.843Z,4.82
2023-04-21T18:34:31.507Z,4.55
2023-04-21T18:36:58.062Z,4.57
2023-04-21T18:39:25.501Z,4.57
2023-04-21T18:41:52.159Z,3.95
2023-04-21T18:44:18.780Z,3.30
2023-04-21T18:46:45.437Z,3.78
2023-04-21T18:49:12.117Z,3.70
2023-04-21T18:51:38.864Z,3.80
2023-04-21T18:54:05.788Z,3.67
2023-04-21T18:56:35.515Z,3.45
2023-04-21T18:59:02.158Z,3.97
2023-04-21T19:01:28.827Z,3.22
2023-04-21T19:03:55.570Z,3.10
2023-04-21T19:06:22.170Z,3.65
2023-04-21T19:08:51.262Z,3.47
2023-04-21T19:11:17.806Z,3.10
2023-04-21T19:13:44.450Z,3.20
2023-04-21T19:16:11.287Z,3.90
2023-04-21T19:18:38.116Z,3.75
2023-04-21T19:21:06.027Z,4.13
2023-04-21T19:23:32.961Z,4.85
2023-04-21T19:26:00.323Z,9.13
2023-04-21T19:28:26.936Z,9.52
2023-04-21T19:30:53.429Z,10.27
2023-04-21T19:33:20.056Z,11.23
2023-04-21T19:35:46.697Z,11.18
2023-04-21T19:38:13.217Z,12.98
2023-04-21T19:40:39.819Z,11.75
2023-04-21T19:43:08.916Z,11.00
2023-04-21T19:45:35.395Z,11.73
2023-04-21T19:48:02.019Z,11.70
2023-04-21T19:50:28.676Z,9.70
2023-04-21T19:52:55.184Z,9.45
2023-04-21T19:55:21.648Z,10.18
2023-04-21T19:57:48.152Z,10.10
2023-04-21T20:00:15.097Z,9.70
2023-04-21T20:02:42.393Z,9.15
2023-04-21T20:05:09.624Z,10.23
2023-04-21T20:07:36.657Z,9.23
2023-04-21T20:10:03.960Z,10.50
2023-04-21T20:12:30.487Z,11.68
2023-04-21T20:14:57.228Z,10.15
2023-04-21T20:17:23.766Z,10.57
2023-04-21T20:19:50.240Z,10.73
2023-04-21T20:22:16.972Z,9.07
2023-04-21T20:24:43.512Z,9.65
2023-04-21T20:27:10.057Z,7.63
2023-04-21T20:29:36.992Z,6.80
2023-04-21T20:32:03.739Z,6.07
2023-04-21T20:34:30.551Z,6.13
2023-04-21T20:36:57.756Z,6.28
2023-04-21T20:39:25.467Z,5.28
2023-04-21T20:42:04.743Z,5.80
2023-04-21T20:44:38.826Z,4.78
2023-04-21T20:47:05.557Z,4.50
2023-04-21T20:49:32.198Z,5.45
2023-04-21T20:51:59.016Z,4.68
2023-04-21T20:54:25.558Z,4.60
2023-04-21T20:56:52.117Z,5.15
2023-04-21T20:59:18.758Z,5.38
2023-04-21T21:01:45.374Z,5.30
2023-04-21T21:04:12.153Z,5.45
2023-04-21T21:06:38.821Z,6.70
2023-04-21T21:09:06.120Z,6.05
2023-04-21T21:11:32.744Z,5.75
2023-04-21T21:13:59.367Z,5.53
2023-04-21T21:16:26.048Z,5.78
2023-04-21T21:18:52.748Z,6.45
2023-04-21T21:21:19.298Z,8.75
2023-04-21T21:23:45.923Z,11.20
2023-04-21T21:26:12.474Z,8.70
2023-04-21T21:28:39.049Z,8.80
2023-04-21T21:31:05.630Z,7.53
2023-04-21T21:33:32.181Z,8.30
2023-04-21T21:35:58.790Z,8.82
2023-04-21T21:38:25.309Z,8.70
2023-04-21T21:40:51.836Z,9.00
2023-04-21T21:43:18.421Z,10.13
2023-04-21T21:45:44.978Z,10.38
2023-04-21T21:48:11.662Z,9.93
2023-04-21T21:50:38.245Z,9.60
2023-04-21T21:53:04.832Z,10.25
2023-04-21T21:55:31.334Z,9.80
2023-04-21T21:57:58.116Z,10.20
2023-04-21T22:00:26.586Z,10.10
2023-04-21T22:02:53.204Z,10.82
2023-04-21T22:05:19.874Z,12.32
2023-04-21T22:07:46.616Z,11.70
2023-04-21T22:10:13.258Z,11.35
2023-04-21T22:12:39.792Z,12.07
2023-04-21T22:15:07.073Z,12.18
2023-04-21T22:17:34.836Z,12.40
2023-04-21T22:20:01.457Z,12.93
2023-04-21T22:22:28.017Z,14.20
2023-04-21T22:24:54.522Z,14.40
2023-04-21T22:27:21.045Z,17.70
2023-04-21T22:29:47.541Z,17.55
2023-04-21T22:32:14.068Z,15.55
2023-04-21T22:34:40.711Z,14.85
2023-04-21T22:37:07.251Z,14.30
2023-04-21T22:39:33.758Z,13.95
2023-04-21T22:42:01.078Z,14.70
2023-04-21T22:44:27.621Z,14.80
2023-04-21T22:46:54.738Z,13.02
2023-04-21T22:49:21.717Z,14.15
2023-04-21T22:51:48.976Z,14.20
2023-04-21T22:54:15.477Z,15.73
2023-04-21T22:56:42.030Z,15.52
2023-04-21T22:59:08.585Z,14.18
2023-04-21T23:01:35.101Z,13.63
2023-04-21T23:04:01.609Z,13.00
2023-04-21T23:06:28.480Z,12.73
2023-04-21T23:08:54.961Z,13.75
2023-04-21T23:11:21.493Z,13.65
2023-04-21T23:13:48.163Z,13.32
2023-04-21T23:16:14.826Z,12.68
2023-04-21T23:18:41.588Z,12.98
2023-04-21T23:21:08.182Z,13.07
2023-04-21T23:23:34.729Z,14.30
2023-04-21T23:26:01.255Z,13.55
2023-04-21T23:28:27.881Z,13.88
2023-04-21T23:30:54.415Z,14.20
2023-04-21T23:33:20.922Z,14.00
2023-04-21T23:35:47.417Z,15.10
2023-04-21T23:38:13.930Z,16.52
2023-04-21T23:40:40.424Z,15.75
2023-04-21T23:43:07.278Z,15.80
2023-04-21T23:45:33.767Z,14.27
2023-04-21T23:48:00.406Z,13.15
2023-04-21T23:50:26.958Z,13.73
2023-04-21T23:52:53.517Z,15.02
2023-04-21T23:55:20.025Z,15.20
2023-04-21T23:57:47.111Z,14.85
